sensor_id;sensor_type;location;lat;lon;timestamp;temperature;humidity
22416;DHT22;12204;50.600;4.608;2022-07-12T00:02:39;26.10;60.80
22416;DHT22;12204;50.600;4.608;2022-07-12T00:07:44;26.10;60.80
22416;DHT22;12204;50.600;4.608;2022-07-12T00:12:48;26.10;60.30
22416;DHT22;12204;50.600;4.608;2022-07-12T00:17:52;26.10;60.10
22416;DHT22;12204;50.600;4.608;2022-07-12T00:22:57;26.10;59.80
22416;DHT22;12204;50.600;4.608;2022-07-12T00:28:01;26.10;59.90
22416;DHT22;12204;50.600;4.608;2022-07-12T00:33:05;26.10;59.20
22416;DHT22;12204;50.600;4.608;2022-07-12T00:38:10;26.00;59.20
22416;DHT22;12204;50.600;4.608;2022-07-12T00:43:14;26.00;59.10
22416;DHT22;12204;50.600;4.608;2022-07-12T00:48:18;26.00;58.90
22416;DHT22;12204;50.600;4.608;2022-07-12T00:53:23;26.00;59.00
22416;DHT22;12204;50.600;4.608;2022-07-12T00:58:28;26.00;58.90
22416;DHT22;12204;50.600;4.608;2022-07-12T01:03:32;25.90;58.90
22416;DHT22;12204;50.600;4.608;2022-07-12T01:08:37;25.90;58.60
22416;DHT22;12204;50.600;4.608;2022-07-12T01:13:41;26.00;58.80
22416;DHT22;12204;50.600;4.608;2022-07-12T01:18:46;25.90;58.30
22416;DHT22;12204;50.600;4.608;2022-07-12T01:23:51;25.90;58.00
22416;DHT22;12204;50.600;4.608;2022-07-12T01:28:55;25.90;58.20
22416;DHT22;12204;50.600;4.608;2022-07-12T01:33:59;25.90;58.00
22416;DHT22;12204;50.600;4.608;2022-07-12T01:39:04;25.90;57.90
22416;DHT22;12204;50.600;4.608;2022-07-12T01:44:08;25.90;57.70
22416;DHT22;12204;50.600;4.608;2022-07-12T01:49:12;25.80;57.70
22416;DHT22;12204;50.600;4.608;2022-07-12T01:54:17;25.80;57.40
22416;DHT22;12204;50.600;4.608;2022-07-12T01:59:21;25.80;57.60
22416;DHT22;12204;50.600;4.608;2022-07-12T02:04:25;25.80;57.70
22416;DHT22;12204;50.600;4.608;2022-07-12T02:09:30;25.80;57.70
22416;DHT22;12204;50.600;4.608;2022-07-12T02:14:34;25.80;57.00
22416;DHT22;12204;50.600;4.608;2022-07-12T02:19:38;25.80;57.70
22416;DHT22;12204;50.600;4.608;2022-07-12T02:24:43;25.80;57.00
22416;DHT22;12204;50.600;4.608;2022-07-12T02:29:46;25.80;56.80
22416;DHT22;12204;50.600;4.608;2022-07-12T02:34:50;25.80;56.90
22416;DHT22;12204;50.600;4.608;2022-07-12T02:39:55;25.80;56.80
22416;DHT22;12204;50.600;4.608;2022-07-12T02:45:19;25.80;56.70
22416;DHT22;12204;50.600;4.608;2022-07-12T02:50:23;25.70;56.60
22416;DHT22;12204;50.600;4.608;2022-07-12T02:55:29;25.70;56.60
22416;DHT22;12204;50.600;4.608;2022-07-12T03:00:33;25.70;56.50
22416;DHT22;12204;50.600;4.608;2022-07-12T03:05:37;25.70;56.30
22416;DHT22;12204;50.600;4.608;2022-07-12T03:10:42;25.70;56.10
22416;DHT22;12204;50.600;4.608;2022-07-12T03:15:46;25.70;56.10
22416;DHT22;12204;50.600;4.608;2022-07-12T03:20:50;25.70;56.10
22416;DHT22;12204;50.600;4.608;2022-07-12T03:25:55;25.70;56.00
22416;DHT22;12204;50.600;4.608;2022-07-12T03:30:59;25.70;55.80
22416;DHT22;12204;50.600;4.608;2022-07-12T03:36:03;25.60;55.80
22416;DHT22;12204;50.600;4.608;2022-07-12T03:41:11;25.60;55.70
22416;DHT22;12204;50.600;4.608;2022-07-12T03:46:15;25.60;55.60
22416;DHT22;12204;50.600;4.608;2022-07-12T03:51:19;25.60;55.50
22416;DHT22;12204;50.600;4.608;2022-07-12T03:56:24;25.60;55.50
22416;DHT22;12204;50.600;4.608;2022-07-12T04:01:46;25.60;55.50
22416;DHT22;12204;50.600;4.608;2022-07-12T04:06:49;25.60;55.40
22416;DHT22;12204;50.600;4.608;2022-07-12T04:11:54;25.60;55.30
22416;DHT22;12204;50.600;4.608;2022-07-12T04:16:58;25.60;55.30
22416;DHT22;12204;50.600;4.608;2022-07-12T04:22:02;25.50;55.20
22416;DHT22;12204;50.600;4.608;2022-07-12T04:27:08;25.60;55.30
22416;DHT22;12204;50.600;4.608;2022-07-12T04:32:11;25.50;55.20
22416;DHT22;12204;50.600;4.608;2022-07-12T04:37:15;25.50;55.30
22416;DHT22;12204;50.600;4.608;2022-07-12T04:42:20;25.50;55.20
22416;DHT22;12204;50.600;4.608;2022-07-12T04:47:24;25.50;55.20
22416;DHT22;12204;50.600;4.608;2022-07-12T04:52:27;25.50;55.20
22416;DHT22;12204;50.600;4.608;2022-07-12T04:57:34;25.50;55.20
22416;DHT22;12204;50.600;4.608;2022-07-12T05:02:38;25.50;55.20
22416;DHT22;12204;50.600;4.608;2022-07-12T05:07:42;25.50;55.30
22416;DHT22;12204;50.600;4.608;2022-07-12T05:12:49;25.50;55.30
22416;DHT22;12204;50.600;4.608;2022-07-12T05:17:53;25.50;55.50
22416;DHT22;12204;50.600;4.608;2022-07-12T05:22:57;25.50;55.60
22416;DHT22;12204;50.600;4.608;2022-07-12T05:28:02;25.50;55.90
22416;DHT22;12204;50.600;4.608;2022-07-12T05:33:06;25.50;56.00
22416;DHT22;12204;50.600;4.608;2022-07-12T05:38:09;25.50;56.20
22416;DHT22;12204;50.600;4.608;2022-07-12T05:43:15;25.50;56.40
22416;DHT22;12204;50.600;4.608;2022-07-12T05:48:19;25.50;56.60
22416;DHT22;12204;50.600;4.608;2022-07-12T05:53:22;25.50;56.70
22416;DHT22;12204;50.600;4.608;2022-07-12T05:58:27;25.50;56.90
22416;DHT22;12204;50.600;4.608;2022-07-12T06:03:32;25.50;57.20
22416;DHT22;12204;50.600;4.608;2022-07-12T06:08:35;25.50;57.40
22416;DHT22;12204;50.600;4.608;2022-07-12T06:13:40;25.50;57.80
22416;DHT22;12204;50.600;4.608;2022-07-12T06:18:44;25.50;58.00
22416;DHT22;12204;50.600;4.608;2022-07-12T06:23:48;25.50;58.20
22416;DHT22;12204;50.600;4.608;2022-07-12T06:28:53;25.50;58.40
22416;DHT22;12204;50.600;4.608;2022-07-12T06:33:57;25.50;58.80
22416;DHT22;12204;50.600;4.608;2022-07-12T06:39:00;25.50;58.90
22416;DHT22;12204;50.600;4.608;2022-07-12T06:44:06;25.50;58.90
22416;DHT22;12204;50.600;4.608;2022-07-12T06:49:09;25.50;59.20
22416;DHT22;12204;50.600;4.608;2022-07-12T06:54:13;25.60;59.50
22416;DHT22;12204;50.600;4.608;2022-07-12T06:59:18;25.60;59.50
22416;DHT22;12204;50.600;4.608;2022-07-12T07:04:22;25.50;59.30
22416;DHT22;12204;50.600;4.608;2022-07-12T07:09:26;25.50;59.40
22416;DHT22;12204;50.600;4.608;2022-07-12T07:14:31;25.60;59.90
22416;DHT22;12204;50.600;4.608;2022-07-12T07:19:36;25.60;60.10
22416;DHT22;12204;50.600;4.608;2022-07-12T07:24:41;25.50;59.70
22416;DHT22;12204;50.600;4.608;2022-07-12T07:29:46;25.50;59.60
22416;DHT22;12204;50.600;4.608;2022-07-12T07:35:08;25.40;59.50
22416;DHT22;12204;50.600;4.608;2022-07-12T07:40:12;25.40;59.40
22416;DHT22;12204;50.600;4.608;2022-07-12T07:45:17;25.40;59.50
22416;DHT22;12204;50.600;4.608;2022-07-12T07:50:21;25.40;59.50
22416;DHT22;12204;50.600;4.608;2022-07-12T07:55:25;25.40;59.60
22416;DHT22;12204;50.600;4.608;2022-07-12T08:00:30;25.40;59.50
22416;DHT22;12204;50.600;4.608;2022-07-12T08:05:34;25.40;59.60
22416;DHT22;12204;50.600;4.608;2022-07-12T08:10:38;25.40;59.70
22416;DHT22;12204;50.600;4.608;2022-07-12T08:15:43;25.40;59.60
22416;DHT22;12204;50.600;4.608;2022-07-12T08:20:47;25.40;59.40
22416;DHT22;12204;50.600;4.608;2022-07-12T08:25:50;25.40;59.30
22416;DHT22;12204;50.600;4.608;2022-07-12T08:30:55;25.40;59.40
22416;DHT22;12204;50.600;4.608;2022-07-12T08:35:59;25.40;59.20
22416;DHT22;12204;50.600;4.608;2022-07-12T08:41:04;25.40;59.30
22416;DHT22;12204;50.600;4.608;2022-07-12T08:46:10;25.40;59.20
22416;DHT22;12204;50.600;4.608;2022-07-12T08:51:18;25.40;59.50
22416;DHT22;12204;50.600;4.608;2022-07-12T08:56:31;25.40;59.20
22416;DHT22;12204;50.600;4.608;2022-07-12T09:01:42;25.40;58.90
22416;DHT22;12204;50.600;4.608;2022-07-12T09:06:48;25.40;59.20
22416;DHT22;12204;50.600;4.608;2022-07-12T09:11:55;25.50;59.80
22416;DHT22;12204;50.600;4.608;2022-07-12T09:17:01;25.60;60.00
22416;DHT22;12204;50.600;4.608;2022-07-12T09:22:14;25.60;61.00
22416;DHT22;12204;50.600;4.608;2022-07-12T09:27:24;25.60;60.60
22416;DHT22;12204;50.600;4.608;2022-07-12T09:32:30;25.60;60.10
22416;DHT22;12204;50.600;4.608;2022-07-12T09:37:50;25.60;59.80
22416;DHT22;12204;50.600;4.608;2022-07-12T09:42:54;25.70;59.80
22416;DHT22;12204;50.600;4.608;2022-07-12T09:47:59;25.70;60.50
22416;DHT22;12204;50.600;4.608;2022-07-12T09:53:04;25.70;59.70
22416;DHT22;12204;50.600;4.608;2022-07-12T09:58:11;25.70;60.20
22416;DHT22;12204;50.600;4.608;2022-07-12T10:03:20;25.80;60.60
22416;DHT22;12204;50.600;4.608;2022-07-12T10:08:26;25.70;60.10
22416;DHT22;12204;50.600;4.608;2022-07-12T10:13:30;25.70;59.50
22416;DHT22;12204;50.600;4.608;2022-07-12T10:18:36;25.70;59.30
22416;DHT22;12204;50.600;4.608;2022-07-12T10:23:41;25.70;60.10
22416;DHT22;12204;50.600;4.608;2022-07-12T10:29:01;25.70;59.80
22416;DHT22;12204;50.600;4.608;2022-07-12T10:34:21;25.80;60.50
22416;DHT22;12204;50.600;4.608;2022-07-12T10:39:30;25.80;61.50
22416;DHT22;12204;50.600;4.608;2022-07-12T10:44:38;25.80;59.30
22416;DHT22;12204;50.600;4.608;2022-07-12T10:49:47;25.80;59.50
22416;DHT22;12204;50.600;4.608;2022-07-12T10:55:20;25.80;58.60
22416;DHT22;12204;50.600;4.608;2022-07-12T11:00:24;25.80;59.10
22416;DHT22;12204;50.600;4.608;2022-07-12T11:05:29;25.80;58.20
22416;DHT22;12204;50.600;4.608;2022-07-12T11:10:33;25.80;59.30
22416;DHT22;12204;50.600;4.608;2022-07-12T11:15:37;25.80;59.70
22416;DHT22;12204;50.600;4.608;2022-07-12T11:20:42;25.80;59.00
22416;DHT22;12204;50.600;4.608;2022-07-12T11:25:45;25.80;59.20
22416;DHT22;12204;50.600;4.608;2022-07-12T11:30:50;25.90;59.60
22416;DHT22;12204;50.600;4.608;2022-07-12T11:35:55;25.90;59.40
22416;DHT22;12204;50.600;4.608;2022-07-12T11:41:00;25.90;57.40
22416;DHT22;12204;50.600;4.608;2022-07-12T11:46:07;25.90;57.20
22416;DHT22;12204;50.600;4.608;2022-07-12T11:51:13;25.90;56.60
22416;DHT22;12204;50.600;4.608;2022-07-12T11:56:17;25.90;56.20
22416;DHT22;12204;50.600;4.608;2022-07-12T12:01:21;25.90;55.90
22416;DHT22;12204;50.600;4.608;2022-07-12T12:06:26;25.90;56.40
22416;DHT22;12204;50.600;4.608;2022-07-12T12:11:33;25.90;57.10
22416;DHT22;12204;50.600;4.608;2022-07-12T12:16:37;26.00;56.10
22416;DHT22;12204;50.600;4.608;2022-07-12T12:21:42;25.90;54.70
22416;DHT22;12204;50.600;4.608;2022-07-12T12:26:46;26.00;54.90
22416;DHT22;12204;50.600;4.608;2022-07-12T12:31:56;26.00;54.10
22416;DHT22;12204;50.600;4.608;2022-07-12T12:37:05;26.00;53.50
22416;DHT22;12204;50.600;4.608;2022-07-12T12:42:11;26.00;52.90
22416;DHT22;12204;50.600;4.608;2022-07-12T12:47:16;26.00;52.50
22416;DHT22;12204;50.600;4.608;2022-07-12T12:52:47;26.00;53.20
22416;DHT22;12204;50.600;4.608;2022-07-12T12:57:52;26.10;51.20
22416;DHT22;12204;50.600;4.608;2022-07-12T13:02:56;26.10;50.80
22416;DHT22;12204;50.600;4.608;2022-07-12T13:08:03;26.10;51.60
22416;DHT22;12204;50.600;4.608;2022-07-12T13:13:09;26.10;50.90
22416;DHT22;12204;50.600;4.608;2022-07-12T13:18:20;26.10;52.10
22416;DHT22;12204;50.600;4.608;2022-07-12T13:23:25;26.10;52.80
22416;DHT22;12204;50.600;4.608;2022-07-12T13:28:29;26.10;53.10
22416;DHT22;12204;50.600;4.608;2022-07-12T13:33:34;26.10;53.10
22416;DHT22;12204;50.600;4.608;2022-07-12T13:38:39;26.10;51.50
22416;DHT22;12204;50.600;4.608;2022-07-12T13:43:43;26.20;51.60
22416;DHT22;12204;50.600;4.608;2022-07-12T13:48:47;26.20;51.70
22416;DHT22;12204;50.600;4.608;2022-07-12T13:53:52;26.10;51.50
22416;DHT22;12204;50.600;4.608;2022-07-12T13:58:56;26.20;50.50
22416;DHT22;12204;50.600;4.608;2022-07-12T14:03:59;26.20;54.10
22416;DHT22;12204;50.600;4.608;2022-07-12T14:09:05;26.20;53.70
22416;DHT22;12204;50.600;4.608;2022-07-12T14:14:09;26.20;54.50
22416;DHT22;12204;50.600;4.608;2022-07-12T14:19:19;26.20;53.60
22416;DHT22;12204;50.600;4.608;2022-07-12T14:24:24;26.20;53.90
22416;DHT22;12204;50.600;4.608;2022-07-12T14:29:28;26.20;52.60
22416;DHT22;12204;50.600;4.608;2022-07-12T14:34:31;26.20;52.40
22416;DHT22;12204;50.600;4.608;2022-07-12T14:39:36;26.30;52.30
22416;DHT22;12204;50.600;4.608;2022-07-12T14:44:41;26.30;53.60
22416;DHT22;12204;50.600;4.608;2022-07-12T14:49:45;26.30;52.40
22416;DHT22;12204;50.600;4.608;2022-07-12T14:54:49;26.30;51.80
22416;DHT22;12204;50.600;4.608;2022-07-12T14:59:53;26.40;51.20
22416;DHT22;12204;50.600;4.608;2022-07-12T15:04:57;26.50;50.50
22416;DHT22;12204;50.600;4.608;2022-07-12T15:10:07;26.60;51.30
22416;DHT22;12204;50.600;4.608;2022-07-12T15:15:12;26.60;51.60
22416;DHT22;12204;50.600;4.608;2022-07-12T15:20:15;26.60;52.20
22416;DHT22;12204;50.600;4.608;2022-07-12T15:25:20;26.70;52.60
22416;DHT22;12204;50.600;4.608;2022-07-12T15:30:24;26.70;52.10
22416;DHT22;12204;50.600;4.608;2022-07-12T15:35:28;26.80;51.70
22416;DHT22;12204;50.600;4.608;2022-07-12T15:40:34;26.80;51.80
22416;DHT22;12204;50.600;4.608;2022-07-12T15:45:38;26.90;51.70
22416;DHT22;12204;50.600;4.608;2022-07-12T15:50:42;27.00;52.10
22416;DHT22;12204;50.600;4.608;2022-07-12T15:55:51;27.00;51.50
22416;DHT22;12204;50.600;4.608;2022-07-12T16:00:57;27.00;51.40
22416;DHT22;12204;50.600;4.608;2022-07-12T16:06:03;27.10;50.30
22416;DHT22;12204;50.600;4.608;2022-07-12T16:11:09;27.10;50.80
22416;DHT22;12204;50.600;4.608;2022-07-12T16:16:13;27.10;51.30
22416;DHT22;12204;50.600;4.608;2022-07-12T16:21:17;27.10;51.60
22416;DHT22;12204;50.600;4.608;2022-07-12T16:26:22;27.10;51.80
22416;DHT22;12204;50.600;4.608;2022-07-12T16:31:26;27.10;51.90
22416;DHT22;12204;50.600;4.608;2022-07-12T16:36:49;27.10;51.80
22416;DHT22;12204;50.600;4.608;2022-07-12T16:41:54;27.10;51.50
22416;DHT22;12204;50.600;4.608;2022-07-12T16:46:58;27.10;51.30
22416;DHT22;12204;50.600;4.608;2022-07-12T16:52:02;27.10;51.60
22416;DHT22;12204;50.600;4.608;2022-07-12T16:57:07;27.10;50.50
22416;DHT22;12204;50.600;4.608;2022-07-12T17:02:10;27.10;49.60
22416;DHT22;12204;50.600;4.608;2022-07-12T17:07:16;27.10;48.30
22416;DHT22;12204;50.600;4.608;2022-07-12T17:12:21;27.10;47.70
22416;DHT22;12204;50.600;4.608;2022-07-12T17:17:25;27.10;48.10
22416;DHT22;12204;50.600;4.608;2022-07-12T17:22:28;27.10;48.50
22416;DHT22;12204;50.600;4.608;2022-07-12T17:27:33;27.10;48.80
22416;DHT22;12204;50.600;4.608;2022-07-12T17:32:37;27.10;50.50
22416;DHT22;12204;50.600;4.608;2022-07-12T17:37:42;27.10;49.70
22416;DHT22;12204;50.600;4.608;2022-07-12T17:42:47;27.10;49.10
22416;DHT22;12204;50.600;4.608;2022-07-12T17:47:51;27.00;48.50
22416;DHT22;12204;50.600;4.608;2022-07-12T17:52:57;27.00;49.30
22416;DHT22;12204;50.600;4.608;2022-07-12T17:58:02;27.00;50.40
22416;DHT22;12204;50.600;4.608;2022-07-12T18:03:23;27.00;50.30
22416;DHT22;12204;50.600;4.608;2022-07-12T18:08:26;27.00;50.80
22416;DHT22;12204;50.600;4.608;2022-07-12T18:13:32;27.00;51.80
22416;DHT22;12204;50.600;4.608;2022-07-12T18:18:54;27.00;52.60
22416;DHT22;12204;50.600;4.608;2022-07-12T18:23:58;27.00;53.50
22416;DHT22;12204;50.600;4.608;2022-07-12T18:29:03;26.90;54.10
22416;DHT22;12204;50.600;4.608;2022-07-12T18:34:06;26.90;54.80
22416;DHT22;12204;50.600;4.608;2022-07-12T18:39:10;26.90;55.80
22416;DHT22;12204;50.600;4.608;2022-07-12T18:44:17;26.90;56.70
22416;DHT22;12204;50.600;4.608;2022-07-12T18:49:29;26.90;57.60
22416;DHT22;12204;50.600;4.608;2022-07-12T18:54:33;26.90;58.00
22416;DHT22;12204;50.600;4.608;2022-07-12T18:59:39;26.90;58.50
22416;DHT22;12204;50.600;4.608;2022-07-12T19:04:42;26.90;58.90
22416;DHT22;12204;50.600;4.608;2022-07-12T19:09:46;26.80;59.30
22416;DHT22;12204;50.600;4.608;2022-07-12T19:14:52;26.80;59.80
22416;DHT22;12204;50.600;4.608;2022-07-12T19:19:56;26.80;60.20
22416;DHT22;12204;50.600;4.608;2022-07-12T19:24:59;26.80;60.30
22416;DHT22;12204;50.600;4.608;2022-07-12T19:30:05;26.80;60.60
22416;DHT22;12204;50.600;4.608;2022-07-12T19:35:10;26.80;61.20
22416;DHT22;12204;50.600;4.608;2022-07-12T19:40:14;26.80;61.40
22416;DHT22;12204;50.600;4.608;2022-07-12T19:45:19;26.90;61.10
22416;DHT22;12204;50.600;4.608;2022-07-12T19:50:26;26.80;62.40
22416;DHT22;12204;50.600;4.608;2022-07-12T19:55:30;26.80;61.80
22416;DHT22;12204;50.600;4.608;2022-07-12T20:00:35;26.80;62.70
22416;DHT22;12204;50.600;4.608;2022-07-12T20:05:39;26.80;63.10
22416;DHT22;12204;50.600;4.608;2022-07-12T20:10:43;26.80;63.50
22416;DHT22;12204;50.600;4.608;2022-07-12T20:15:48;26.80;63.30
22416;DHT22;12204;50.600;4.608;2022-07-12T20:20:52;26.90;63.60
22416;DHT22;12204;50.600;4.608;2022-07-12T20:25:55;26.80;63.60
22416;DHT22;12204;50.600;4.608;2022-07-12T20:31:00;26.90;63.60
22416;DHT22;12204;50.600;4.608;2022-07-12T20:36:04;26.90;63.60
22416;DHT22;12204;50.600;4.608;2022-07-12T20:41:08;26.80;64.10
22416;DHT22;12204;50.600;4.608;2022-07-12T20:46:21;26.80;64.50
22416;DHT22;12204;50.600;4.608;2022-07-12T20:51:25;26.80;64.10
22416;DHT22;12204;50.600;4.608;2022-07-12T20:56:30;26.90;63.80
22416;DHT22;12204;50.600;4.608;2022-07-12T21:01:36;26.90;63.50
22416;DHT22;12204;50.600;4.608;2022-07-12T21:06:40;26.80;64.20
22416;DHT22;12204;50.600;4.608;2022-07-12T21:11:44;26.80;64.20
22416;DHT22;12204;50.600;4.608;2022-07-12T21:16:49;26.80;64.40
22416;DHT22;12204;50.600;4.608;2022-07-12T21:21:53;26.80;64.70
22416;DHT22;12204;50.600;4.608;2022-07-12T21:26:57;26.80;64.50
22416;DHT22;12204;50.600;4.608;2022-07-12T21:32:02;26.80;64.70
22416;DHT22;12204;50.600;4.608;2022-07-12T21:37:06;26.80;64.60
22416;DHT22;12204;50.600;4.608;2022-07-12T21:42:10;26.90;64.60
22416;DHT22;12204;50.600;4.608;2022-07-12T21:47:15;26.90;64.30
22416;DHT22;12204;50.600;4.608;2022-07-12T21:52:19;26.80;64.40
22416;DHT22;12204;50.600;4.608;2022-07-12T21:57:22;26.80;64.50
22416;DHT22;12204;50.600;4.608;2022-07-12T22:02:28;26.90;64.30
22416;DHT22;12204;50.600;4.608;2022-07-12T22:07:32;26.90;64.70
22416;DHT22;12204;50.600;4.608;2022-07-12T22:12:36;26.90;64.60
22416;DHT22;12204;50.600;4.608;2022-07-12T22:17:41;26.80;64.40
22416;DHT22;12204;50.600;4.608;2022-07-12T22:22:45;26.80;64.50
22416;DHT22;12204;50.600;4.608;2022-07-12T22:27:48;26.90;64.40
22416;DHT22;12204;50.600;4.608;2022-07-12T22:32:54;26.90;64.30
22416;DHT22;12204;50.600;4.608;2022-07-12T22:37:59;26.90;64.40
22416;DHT22;12204;50.600;4.608;2022-07-12T22:43:02;26.90;64.30
22416;DHT22;12204;50.600;4.608;2022-07-12T22:48:07;26.90;64.30
22416;DHT22;12204;50.600;4.608;2022-07-12T22:53:11;26.90;64.40
22416;DHT22;12204;50.600;4.608;2022-07-12T22:58:14;26.90;64.50
22416;DHT22;12204;50.600;4.608;2022-07-12T23:03:19;26.90;64.40
22416;DHT22;12204;50.600;4.608;2022-07-12T23:08:23;26.90;64.40
22416;DHT22;12204;50.600;4.608;2022-07-12T23:13:26;26.90;64.40
22416;DHT22;12204;50.600;4.608;2022-07-12T23:18:32;26.90;64.50
22416;DHT22;12204;50.600;4.608;2022-07-12T23:23:35;26.90;64.50
22416;DHT22;12204;50.600;4.608;2022-07-12T23:28:39;26.90;64.80
22416;DHT22;12204;50.600;4.608;2022-07-12T23:33:44;26.90;64.80
22416;DHT22;12204;50.600;4.608;2022-07-12T23:38:48;26.90;64.80
22416;DHT22;12204;50.600;4.608;2022-07-12T23:43:51;26.90;65.00
22416;DHT22;12204;50.600;4.608;2022-07-12T23:48:56;26.90;64.80
22416;DHT22;12204;50.600;4.608;2022-07-12T23:54:00;26.90;64.90
22416;DHT22;12204;50.600;4.608;2022-07-12T23:59:03;26.90;64.90
